Portada
METAR-TAF:

METAR-TAF

Aeroports :

Curtis L. Brown Jr. Field

Elizabethtown, Carolina del Nord, Estats Units d'Amèrica

latitud: 34-36N, longitud: 078-35W, altitud: 40 m

Observació

L'informe es va fer fa 15 minuts, a les 12:35 UTC
Vent 3 kt del Est
Temperatura 7°C
Humitat 100%
Pressió 1011 hPa
Visibilitat: 1.2 km
Cel cobert a una alçada de 100 ft
boirina

METAR: KEYF 191235Z AUTO 10003KT 3/4SM BR OVC001 07/07 A2986 RMK AO2 T00700069

Hora: 07:50 (12:50 UTC)


TAF: manca

Observacions i pronòstics meteorològics de més de 4000 aeroports (METAR i TAF).

Les estacions disponibles són els punts grocs i vermells al mapa.

Posi el ratolí al punt desitjat per veure el nom de l'estació.

Feu clic per veure les observacions i els pronòstics meteorològics.

Per canviar el mapa: feu clic els botons verds amb una creu de color negre per apropar; al botó verd amb un guió per allunyar la imatge; o en les fletxes verdes per a mapes adjacents.


METAR-TAF: